Quick Links (Output Below):   Max & Min Temps   /   Climate Reports   /   Zone Forecasts
River Forecasts   /   Forestry Forecasts   /   Aviation Forecasts   /   Radars   /   Features

Terminal Aerodrome Forecast (Pine Bluff)

Pick a Site:
Arkadelphia | El Dorado | Fayetteville | Fort Smith | Harrison | Highfill | Hot Springs | Jonesboro
Little Rock | Monticello | Mountain Home | Pine Bluff | Texarkana
 Forecast 

KPBF 292332Z 3000/3024 VRB03KT P6SM SCT080
     FM301400 16005KT P6SM VCSH SCT080 OVC120=


 Latest METARs (Observations) 
How to Decode METARs
03Z KPBF 300253Z AUTO 00000KT 10SM CLR 21/18 A3010 RMK AO2 SLP189
         T02060178 53000
         
02Z KPBF 300153Z AUTO 00000KT 10SM CLR 23/16 A3009 RMK AO2 SLP186
         T02280161
         
01Z KPBF 300053Z AUTO 07003KT 10SM CLR 24/17 A3009 RMK AO2 SLP188
         T02390167
         
00Z KPBF 292353Z AUTO 06006KT 10SM CLR 27/16 A3009 RMK AO2 SLP188
         60000 T02670156 10283 20267 57006
         
***** Today's Observations (Above) *****


23Z KPBF 292253Z AUTO 03009KT 10SM CLR 28/14 A3010 RMK AO2 SLP189
         T02780139
         
22Z KPBF 292153Z AUTO 04009KT 10SM CLR 28/13 A3011 RMK AO2 SLP193
         T02830133
         
21Z KPBF 292053Z AUTO 35007KT 10SM CLR 28/14 A3011 RMK AO2 SLP194
         60000 T02780144 56010
         
20Z KPBF 291953Z AUTO 01008KT 10SM CLR 28/15 A3012 RMK AO2 SLP197
         T02830150
         
19Z KPBF 291853Z AUTO 03008KT 10SM CLR 28/15 A3013 RMK AO2 RAB44E50
         SLP199 P0000 T02830150
         
18Z KPBF 291753Z AUTO 01008KT 10SM CLR 27/15 A3014 RMK AO2 SLP204
         T02720150 10272 20200 58004
         
***** Yesterday's Observations (Above) *****


Back to Main Page
http://www.srh.noaa.gov/lzk/qfcst.php

USA.gov is the U.S. government's official web portal to all federal, state and local government web resources and services.